createdAt,value
2023-12-29T00:01:55.105Z,26
2023-12-29T00:03:55.234Z,24
2023-12-29T00:05:55.321Z,25
2023-12-29T00:07:55.407Z,24
2023-12-29T00:11:55.588Z,30
2023-12-29T00:13:55.621Z,31
2023-12-29T00:15:55.775Z,29
2023-12-29T00:17:55.962Z,27
2023-12-29T00:19:56.054Z,26
2023-12-29T00:21:56.151Z,27
2023-12-29T00:23:56.180Z,29
2023-12-29T00:25:56.248Z,32
2023-12-29T00:27:56.387Z,34
2023-12-29T00:29:56.434Z,34
2023-12-29T00:31:56.677Z,37
2023-12-29T00:33:56.709Z,36
2023-12-29T00:35:56.769Z,34
2023-12-29T00:37:56.811Z,32
2023-12-29T00:39:56.964Z,28
2023-12-29T00:41:57.036Z,27
2023-12-29T00:43:57.287Z,25
2023-12-29T00:45:57.293Z,25
2023-12-29T00:47:57.597Z,24
2023-12-29T00:49:57.440Z,25
2023-12-29T00:51:57.560Z,25
2023-12-29T00:53:57.661Z,24
2023-12-29T00:55:57.693Z,26
2023-12-29T00:57:58.088Z,25
2023-12-29T00:59:57.870Z,26
2023-12-29T01:01:58.109Z,32
2023-12-29T01:03:58.207Z,33
2023-12-29T01:05:58.186Z,34
2023-12-29T01:07:58.373Z,40
2023-12-29T01:09:58.396Z,44
2023-12-29T01:11:58.437Z,48
2023-12-29T01:13:58.516Z,46
2023-12-29T01:15:58.664Z,32
2023-12-29T01:17:59.300Z,31
2023-12-29T01:19:58.867Z,24
2023-12-29T01:21:58.909Z,19
2023-12-29T01:23:58.963Z,19
2023-12-29T01:25:59.037Z,19
2023-12-29T01:29:59.262Z,20
2023-12-29T01:31:59.334Z,21
2023-12-29T01:33:59.537Z,20
2023-12-29T01:36:05.503Z,18
2023-12-29T01:37:59.764Z,19
2023-12-29T01:39:59.737Z,18
2023-12-29T01:41:59.822Z,17
2023-12-29T01:43:59.921Z,18
2023-12-29T01:46:00.616Z,18
2023-12-29T01:48:00.382Z,17
2023-12-29T01:50:00.325Z,17
2023-12-29T01:52:00.299Z,18
2023-12-29T01:54:00.411Z,18
2023-12-29T01:56:02.112Z,18
2023-12-29T01:58:01.054Z,19
2023-12-29T02:00:00.656Z,18
2023-12-29T02:02:00.889Z,17
2023-12-29T02:04:00.902Z,17
2023-12-29T02:06:00.910Z,17
2023-12-29T02:08:01.165Z,14
2023-12-29T02:10:01.106Z,14
2023-12-29T02:12:01.170Z,15
2023-12-29T02:14:01.265Z,14
2023-12-29T02:16:01.451Z,14
2023-12-29T02:18:01.670Z,15
2023-12-29T02:20:01.633Z,15
2023-12-29T02:22:01.595Z,15
2023-12-29T02:24:01.672Z,15
2023-12-29T02:26:01.735Z,17
2023-12-29T02:28:02.022Z,15
2023-12-29T02:30:01.885Z,17
2023-12-29T02:32:01.965Z,18
2023-12-29T02:36:02.160Z,18
2023-12-29T02:38:02.580Z,18
2023-12-29T02:40:02.413Z,20
2023-12-29T02:42:02.495Z,22
2023-12-29T02:44:02.545Z,23
2023-12-29T02:46:02.660Z,31
2023-12-29T02:48:03.031Z,40
2023-12-29T02:50:03.019Z,56
2023-12-29T02:52:03.000Z,69
2023-12-29T02:54:03.021Z,95
2023-12-29T02:56:03.111Z,82
2023-12-29T02:58:03.517Z,82
2023-12-29T03:00:03.300Z,80
2023-12-29T03:02:03.443Z,67
2023-12-29T03:04:03.535Z,45
2023-12-29T03:06:03.537Z,36
2023-12-29T03:08:04.276Z,33
2023-12-29T03:10:03.955Z,24
2023-12-29T03:12:03.875Z,19
2023-12-29T03:14:03.944Z,17
2023-12-29T03:16:04.021Z,15
2023-12-29T03:18:04.489Z,16
2023-12-29T03:20:04.305Z,15
2023-12-29T03:22:04.353Z,16
2023-12-29T03:24:04.375Z,16
2023-12-29T03:26:04.469Z,13
2023-12-29T03:28:05.066Z,11
2023-12-29T03:30:04.724Z,11
2023-12-29T03:32:04.708Z,11
2023-12-29T03:34:04.985Z,11
2023-12-29T03:36:04.895Z,12
2023-12-29T03:38:04.993Z,12
2023-12-29T03:40:05.251Z,12
2023-12-29T03:42:05.167Z,13
2023-12-29T03:44:05.258Z,12
2023-12-29T03:46:05.452Z,12
2023-12-29T03:48:05.922Z,12
2023-12-29T03:50:05.551Z,12
2023-12-29T03:52:05.717Z,11
2023-12-29T03:54:05.686Z,12
2023-12-29T03:56:05.784Z,12
2023-12-29T03:58:05.929Z,13
2023-12-29T04:00:05.994Z,14
2023-12-29T04:02:06.096Z,13
2023-12-29T04:04:06.233Z,13
2023-12-29T04:06:06.270Z,15
2023-12-29T04:08:06.368Z,14
2023-12-29T04:10:06.563Z,15
2023-12-29T04:12:06.527Z,16
2023-12-29T04:14:06.604Z,16
2023-12-29T04:16:06.750Z,17
2023-12-29T04:18:06.930Z,19
2023-12-29T04:20:06.892Z,20
2023-12-29T04:22:07.091Z,28
2023-12-29T04:24:07.065Z,24
2023-12-29T04:26:07.128Z,28
2023-12-29T04:28:07.242Z,25
2023-12-29T04:30:07.320Z,26
2023-12-29T04:32:07.513Z,27
2023-12-29T04:34:07.587Z,31
2023-12-29T04:36:07.642Z,28
2023-12-29T04:38:07.747Z,26
2023-12-29T04:40:07.858Z,25
2023-12-29T04:42:07.868Z,19
2023-12-29T04:44:08.001Z,16
2023-12-29T04:46:08.096Z,15
2023-12-29T04:48:08.165Z,13
2023-12-29T04:50:08.314Z,13
2023-12-29T04:52:08.330Z,11
2023-12-29T04:54:08.375Z,11
2023-12-29T04:56:08.468Z,13
2023-12-29T04:58:08.574Z,13
2023-12-29T05:00:08.662Z,13
2023-12-29T05:02:08.740Z,13
2023-12-29T05:04:08.878Z,13
2023-12-29T05:06:08.905Z,19
2023-12-29T05:08:09.159Z,18
2023-12-29T05:10:09.168Z,19
2023-12-29T05:12:09.184Z,16
2023-12-29T05:14:09.252Z,15
2023-12-29T05:16:09.431Z,15
2023-12-29T05:18:09.549Z,15
2023-12-29T05:20:09.567Z,15
2023-12-29T05:22:09.793Z,16
2023-12-29T05:24:09.714Z,17
2023-12-29T05:26:09.821Z,17
2023-12-29T05:28:09.917Z,20
2023-12-29T05:30:09.990Z,23
2023-12-29T05:32:10.082Z,37
2023-12-29T05:34:10.205Z,36
2023-12-29T05:36:10.217Z,33
2023-12-29T05:38:10.302Z,34
2023-12-29T05:40:40.429Z,33
2023-12-29T05:42:40.603Z,31
2023-12-29T05:44:40.659Z,30
2023-12-29T05:46:40.789Z,27
2023-12-29T05:52:41.117Z,32
2023-12-29T05:54:41.303Z,31
2023-12-29T05:56:41.365Z,26
2023-12-29T05:58:41.484Z,27
2023-12-29T06:00:41.603Z,26
2023-12-29T06:02:41.720Z,26
2023-12-29T06:04:41.830Z,30
2023-12-29T06:06:41.963Z,28
2023-12-29T06:08:42.089Z,24
2023-12-29T06:10:42.161Z,25
2023-12-29T06:14:42.415Z,24
2023-12-29T06:16:42.507Z,26
2023-12-29T06:18:42.761Z,26
2023-12-29T06:20:42.759Z,25
2023-12-29T06:22:42.873Z,24
2023-12-29T06:24:43.016Z,24
2023-12-29T06:26:43.071Z,23
2023-12-29T06:28:43.207Z,24
2023-12-29T06:30:43.502Z,25
2023-12-29T06:32:43.532Z,24
2023-12-29T06:34:43.684Z,26
2023-12-29T06:36:43.696Z,28
2023-12-29T06:38:43.808Z,30
2023-12-29T06:40:43.904Z,28
2023-12-29T06:42:44.062Z,26
2023-12-29T06:44:44.155Z,30
2023-12-29T06:46:44.276Z,37
2023-12-29T06:48:44.686Z,37
2023-12-29T06:50:44.527Z,40
2023-12-29T06:52:44.631Z,38
2023-12-29T06:54:44.762Z,34
2023-12-29T06:56:44.842Z,30
2023-12-29T06:58:44.990Z,26
2023-12-29T07:00:45.443Z,24
2023-12-29T07:02:45.213Z,24
2023-12-29T07:04:45.324Z,24
2023-12-29T07:06:45.531Z,24
2023-12-29T07:08:45.537Z,27
2023-12-29T07:10:45.688Z,28
2023-12-29T07:12:45.917Z,30
2023-12-29T07:14:45.941Z,37
2023-12-29T07:16:46.036Z,32
2023-12-29T07:18:46.355Z,33
2023-12-29T07:20:46.264Z,37
2023-12-29T07:22:46.397Z,39
2023-12-29T07:24:46.520Z,40
2023-12-29T07:26:46.639Z,40
2023-12-29T07:28:46.740Z,48
2023-12-29T07:30:46.911Z,44
2023-12-29T07:32:47.001Z,47
2023-12-29T07:34:47.242Z,49
2023-12-29T07:36:47.326Z,49
2023-12-29T07:38:47.325Z,47
2023-12-29T07:40:47.442Z,46
2023-12-29T07:42:47.544Z,45
2023-12-29T07:44:47.667Z,54
2023-12-29T07:46:47.769Z,63
2023-12-29T07:48:48.012Z,97
2023-12-29T07:50:47.964Z,90
2023-12-29T07:52:48.064Z,77
2023-12-29T07:54:48.255Z,70
2023-12-29T07:56:48.323Z,55
2023-12-29T07:58:50.282Z,52
2023-12-29T08:00:48.676Z,55
2023-12-29T08:02:48.681Z,70
2023-12-29T08:04:48.847Z,79
2023-12-29T08:06:49.008Z,97
2023-12-29T08:08:49.044Z,104
2023-12-29T08:10:49.159Z,102
2023-12-29T08:12:49.298Z,104
2023-12-29T08:14:49.413Z,105
2023-12-29T08:16:49.508Z,102
2023-12-29T08:18:49.648Z,102
2023-12-29T08:20:49.776Z,100
2023-12-29T08:22:49.849Z,97
2023-12-29T08:24:50.056Z,92
2023-12-29T08:26:50.069Z,89
2023-12-29T08:28:50.180Z,86
2023-12-29T08:30:50.400Z,87
2023-12-29T08:34:50.847Z,95
2023-12-29T08:36:50.684Z,104
2023-12-29T08:38:50.745Z,129
2023-12-29T08:40:50.871Z,126
2023-12-29T08:42:51.007Z,119
2023-12-29T08:44:51.107Z,120
2023-12-29T08:46:51.201Z,119
2023-12-29T08:48:51.382Z,116
2023-12-29T08:50:51.918Z,120
2023-12-29T08:52:51.571Z,110
2023-12-29T08:54:51.692Z,98
2023-12-29T08:56:51.771Z,92
2023-12-29T08:58:51.875Z,92
2023-12-29T09:00:52.081Z,93
2023-12-29T09:02:52.110Z,97
2023-12-29T09:04:52.232Z,94
2023-12-29T09:06:52.495Z,89
2023-12-29T09:08:52.485Z,92
2023-12-29T09:10:52.582Z,82
2023-12-29T09:12:52.722Z,88
2023-12-29T09:14:52.831Z,89
2023-12-29T09:16:52.953Z,91
2023-12-29T09:18:53.060Z,91
2023-12-29T09:20:53.238Z,90
2023-12-29T09:22:53.299Z,89
2023-12-29T09:24:53.476Z,83
2023-12-29T09:26:53.527Z,79
2023-12-29T09:28:53.620Z,79
2023-12-29T09:30:53.810Z,86
2023-12-29T09:32:53.874Z,86
2023-12-29T09:34:54.009Z,77
2023-12-29T09:36:54.077Z,81
2023-12-29T09:38:54.153Z,83
2023-12-29T09:40:54.262Z,82
2023-12-29T09:42:54.386Z,78
2023-12-29T09:44:54.527Z,80
2023-12-29T09:46:54.616Z,70
2023-12-29T09:48:54.766Z,71
2023-12-29T09:50:54.813Z,71
2023-12-29T09:52:54.929Z,71
2023-12-29T09:54:55.063Z,63
2023-12-29T09:56:55.116Z,69
2023-12-29T09:58:55.234Z,65
2023-12-29T10:00:55.444Z,62
2023-12-29T10:02:55.460Z,73
2023-12-29T10:04:55.648Z,58
2023-12-29T10:06:55.831Z,56
2023-12-29T10:08:55.844Z,60
2023-12-29T10:10:55.916Z,59
2023-12-29T10:12:56.092Z,54
2023-12-29T10:14:56.120Z,89
2023-12-29T10:16:56.222Z,57
2023-12-29T10:18:56.360Z,71
2023-12-29T10:20:56.433Z,61
2023-12-29T10:22:56.534Z,73
2023-12-29T10:24:56.645Z,87
2023-12-29T10:26:56.777Z,51
2023-12-29T10:28:56.936Z,106
2023-12-29T10:30:57.164Z,102
2023-12-29T10:32:57.297Z,91
2023-12-29T10:34:57.206Z,63
2023-12-29T10:36:57.344Z,76
2023-12-29T10:38:57.415Z,289
2023-12-29T10:40:57.512Z,113
2023-12-29T10:42:57.770Z,224
2023-12-29T10:44:57.712Z,85
2023-12-29T10:46:57.833Z,86
2023-12-29T10:48:58.026Z,106
2023-12-29T10:50:58.096Z,140
2023-12-29T10:52:58.491Z,56
2023-12-29T10:54:58.290Z,81
2023-12-29T10:56:58.336Z,52
2023-12-29T10:58:58.449Z,49
2023-12-29T11:00:58.639Z,57
2023-12-29T11:02:58.904Z,41
2023-12-29T11:04:58.820Z,53
2023-12-29T11:06:58.958Z,64
2023-12-29T11:08:59.026Z,50
2023-12-29T11:10:59.126Z,68
2023-12-29T11:12:59.574Z,67
2023-12-29T11:14:59.302Z,53
2023-12-29T11:16:59.435Z,50
2023-12-29T11:18:59.596Z,58
2023-12-29T11:20:59.637Z,43
2023-12-29T11:23:00.090Z,151
2023-12-29T11:24:59.961Z,54
2023-12-29T11:26:59.944Z,54
2023-12-29T11:29:00.042Z,47
2023-12-29T11:31:00.249Z,50
2023-12-29T11:33:00.666Z,163
2023-12-29T11:35:00.490Z,53
2023-12-29T11:37:00.469Z,41
2023-12-29T11:39:00.554Z,41
2023-12-29T11:41:00.830Z,39
2023-12-29T11:43:01.002Z,41
2023-12-29T11:45:00.847Z,45
2023-12-29T11:47:03.388Z,37
2023-12-29T11:49:01.027Z,37
2023-12-29T11:51:01.085Z,35
2023-12-29T11:53:01.582Z,34
2023-12-29T11:55:01.337Z,37
2023-12-29T11:57:01.415Z,51
2023-12-29T11:59:01.478Z,39
2023-12-29T12:01:01.703Z,42
2023-12-29T12:03:02.004Z,50
2023-12-29T12:05:01.759Z,50
2023-12-29T12:07:01.884Z,49
2023-12-29T12:09:01.990Z,56
2023-12-29T12:11:02.083Z,71
2023-12-29T12:13:02.493Z,78
2023-12-29T12:15:02.267Z,139
2023-12-29T12:17:02.358Z,57
2023-12-29T12:19:02.738Z,53
2023-12-29T12:21:02.663Z,91
2023-12-29T12:23:03.148Z,77
2023-12-29T12:25:02.817Z,86
2023-12-29T12:27:02.857Z,56
2023-12-29T12:29:03.106Z,44
2023-12-29T12:31:03.152Z,58
2023-12-29T12:33:03.443Z,60
2023-12-29T12:35:03.353Z,56
2023-12-29T12:37:03.360Z,52
2023-12-29T12:39:03.429Z,46
2023-12-29T12:41:03.562Z,40
2023-12-29T12:43:04.122Z,54
2023-12-29T12:45:03.727Z,41
2023-12-29T12:47:03.822Z,61
2023-12-29T12:49:04.013Z,57
2023-12-29T12:51:03.965Z,49
2023-12-29T12:53:04.189Z,59
2023-12-29T12:55:04.197Z,61
2023-12-29T12:57:04.242Z,56
2023-12-29T12:59:04.351Z,50
2023-12-29T13:01:04.517Z,51
2023-12-29T13:03:04.725Z,68
2023-12-29T13:05:04.646Z,50
2023-12-29T13:07:04.709Z,69
2023-12-29T13:09:04.778Z,59
2023-12-29T13:11:04.899Z,51
2023-12-29T13:13:05.214Z,83
2023-12-29T13:15:05.091Z,58
2023-12-29T13:17:05.179Z,69
2023-12-29T13:19:05.339Z,71
2023-12-29T13:21:05.501Z,96
2023-12-29T13:23:05.425Z,91
2023-12-29T13:25:05.568Z,66
2023-12-29T13:27:05.624Z,65
2023-12-29T13:29:05.718Z,92
2023-12-29T13:31:05.914Z,71
2023-12-29T13:33:06.262Z,61
2023-12-29T13:35:06.103Z,51
2023-12-29T13:37:06.140Z,65
2023-12-29T13:39:06.173Z,49
2023-12-29T13:41:06.255Z,46
2023-12-29T13:43:06.620Z,49
2023-12-29T13:45:06.454Z,49
2023-12-29T13:47:06.605Z,46
2023-12-29T13:49:06.715Z,40
2023-12-29T13:51:06.685Z,45
2023-12-29T13:53:06.803Z,50
2023-12-29T13:55:06.980Z,49
2023-12-29T13:57:06.971Z,53
2023-12-29T13:59:07.061Z,56
2023-12-29T14:01:07.211Z,62
2023-12-29T14:03:07.336Z,77
2023-12-29T14:05:07.402Z,70
2023-12-29T14:07:37.462Z,71
2023-12-29T14:09:37.526Z,71
2023-12-29T14:11:37.676Z,70
2023-12-29T14:13:37.760Z,65
2023-12-29T14:15:38.002Z,61
2023-12-29T14:17:38.050Z,58
2023-12-29T14:19:38.299Z,54
2023-12-29T14:21:38.288Z,49
2023-12-29T14:23:38.361Z,43
2023-12-29T14:25:38.510Z,42
2023-12-29T14:27:38.614Z,39
2023-12-29T14:29:38.705Z,36
2023-12-29T14:31:38.805Z,35
2023-12-29T14:33:39.039Z,34
2023-12-29T14:35:39.009Z,35
2023-12-29T14:37:39.114Z,41
2023-12-29T14:39:39.271Z,36
2023-12-29T14:41:39.371Z,36
2023-12-29T14:43:39.478Z,34
2023-12-29T14:45:39.645Z,34
2023-12-29T14:47:39.805Z,35
2023-12-29T14:49:39.827Z,36
2023-12-29T14:51:39.991Z,37
2023-12-29T14:53:40.000Z,34
2023-12-29T14:55:40.118Z,36
2023-12-29T14:57:40.252Z,32
2023-12-29T14:59:40.323Z,29
2023-12-29T15:01:40.542Z,43
2023-12-29T15:03:40.668Z,51
2023-12-29T15:05:40.720Z,44
2023-12-29T15:07:40.780Z,52
2023-12-29T15:09:40.914Z,54
2023-12-29T15:11:40.994Z,35
2023-12-29T15:13:41.088Z,54
2023-12-29T15:15:41.320Z,41
2023-12-29T15:17:41.655Z,31
2023-12-29T15:19:41.467Z,29
2023-12-29T15:21:41.578Z,30
2023-12-29T15:23:41.637Z,28
2023-12-29T15:25:41.852Z,31
2023-12-29T15:27:41.893Z,31
2023-12-29T15:29:41.944Z,31
2023-12-29T15:31:42.126Z,27
2023-12-29T15:33:42.317Z,26
2023-12-29T15:35:42.526Z,26
2023-12-29T15:37:42.400Z,28
2023-12-29T15:39:42.837Z,39
2023-12-29T15:41:42.609Z,36
2023-12-29T15:43:42.720Z,43
2023-12-29T15:45:42.828Z,26
2023-12-29T15:47:43.019Z,31
2023-12-29T15:49:43.155Z,29
2023-12-29T15:51:43.148Z,22
2023-12-29T15:53:43.214Z,19
2023-12-29T15:55:43.352Z,24
2023-12-29T15:57:43.540Z,22
2023-12-29T15:59:43.557Z,21
2023-12-29T16:01:43.847Z,21
2023-12-29T16:03:43.832Z,18
2023-12-29T16:05:43.925Z,19
2023-12-29T16:07:43.945Z,16
2023-12-29T16:09:44.105Z,15
2023-12-29T16:11:44.142Z,20
2023-12-29T16:13:44.242Z,21
2023-12-29T16:15:44.394Z,16
2023-12-29T16:17:44.451Z,15
2023-12-29T16:19:44.649Z,17
2023-12-29T16:21:44.726Z,20
2023-12-29T16:23:44.781Z,19
2023-12-29T16:25:44.908Z,20
2023-12-29T16:27:44.994Z,27
2023-12-29T16:29:45.082Z,23
2023-12-29T16:31:45.557Z,21
2023-12-29T16:33:45.401Z,20
2023-12-29T16:35:45.349Z,22
2023-12-29T16:37:45.449Z,21
2023-12-29T16:39:45.642Z,22
2023-12-29T16:41:45.683Z,27
2023-12-29T16:43:45.760Z,31
2023-12-29T16:45:45.862Z,40
2023-12-29T16:47:46.038Z,33
2023-12-29T16:49:46.118Z,26
2023-12-29T16:51:46.281Z,28
2023-12-29T16:53:46.247Z,29
2023-12-29T16:55:46.380Z,28
2023-12-29T16:57:46.488Z,26
2023-12-29T16:59:46.527Z,25
2023-12-29T17:03:46.740Z,26
2023-12-29T17:05:46.864Z,29
2023-12-29T17:07:46.907Z,34
2023-12-29T17:09:47.073Z,35
2023-12-29T17:11:47.141Z,38
2023-12-29T17:13:47.263Z,38
2023-12-29T17:15:47.347Z,38
2023-12-29T17:17:47.444Z,44
2023-12-29T17:19:47.542Z,46
2023-12-29T17:21:47.626Z,58
2023-12-29T17:23:47.735Z,50
2023-12-29T17:25:54.350Z,47
2023-12-29T17:27:47.908Z,53
2023-12-29T17:29:48.018Z,49
2023-12-29T17:31:48.098Z,50
2023-12-29T17:33:48.326Z,61
2023-12-29T17:35:48.344Z,55
2023-12-29T17:37:48.495Z,50
2023-12-29T17:39:48.585Z,47
2023-12-29T17:41:48.651Z,44
2023-12-29T17:43:48.798Z,41
2023-12-29T17:45:48.890Z,45
2023-12-29T17:47:48.964Z,43
2023-12-29T17:49:49.204Z,46
2023-12-29T17:51:49.101Z,51
2023-12-29T17:53:49.205Z,68
2023-12-29T17:55:49.254Z,85
2023-12-29T17:57:49.399Z,90
2023-12-29T17:59:49.461Z,89
2023-12-29T18:01:49.763Z,86
2023-12-29T18:03:49.761Z,90
2023-12-29T18:05:49.832Z,87
2023-12-29T18:07:49.901Z,97
2023-12-29T18:09:49.976Z,99
2023-12-29T18:11:50.017Z,68
2023-12-29T18:13:50.134Z,58
2023-12-29T18:15:50.299Z,49
2023-12-29T18:17:50.397Z,42
2023-12-29T18:19:50.500Z,44
2023-12-29T18:21:50.532Z,58
2023-12-29T18:23:50.613Z,52
2023-12-29T18:25:50.705Z,49
2023-12-29T18:29:50.876Z,82
2023-12-29T18:32:17.630Z,59
2023-12-29T18:33:51.153Z,58
2023-12-29T18:35:51.173Z,59
2023-12-29T18:37:51.266Z,72
2023-12-29T18:39:51.380Z,71
2023-12-29T18:41:51.446Z,83
2023-12-29T18:43:51.540Z,60
2023-12-29T18:45:51.662Z,65
2023-12-29T18:47:51.888Z,77
2023-12-29T18:49:52.203Z,86
2023-12-29T18:51:51.921Z,102
2023-12-29T18:53:52.024Z,102
2023-12-29T18:55:52.086Z,94
2023-12-29T18:57:52.225Z,95
2023-12-29T18:59:52.289Z,99
2023-12-29T19:01:53.511Z,110
2023-12-29T19:03:52.635Z,127
2023-12-29T19:05:52.570Z,118
2023-12-29T19:07:52.633Z,121
2023-12-29T19:09:52.839Z,124
2023-12-29T19:11:52.832Z,128
2023-12-29T19:13:52.932Z,121
2023-12-29T19:15:53.156Z,119
2023-12-29T19:17:53.164Z,117
2023-12-29T19:19:53.214Z,120
2023-12-29T19:21:53.309Z,114
2023-12-29T19:23:53.426Z,104
2023-12-29T19:25:53.464Z,104
2023-12-29T19:27:53.578Z,98
2023-12-29T19:29:53.622Z,91
2023-12-29T19:31:53.800Z,88
2023-12-29T19:33:53.914Z,82
2023-12-29T19:35:53.900Z,85
2023-12-29T19:37:53.981Z,82
2023-12-29T19:39:54.089Z,67
2023-12-29T19:41:54.127Z,64
2023-12-29T19:43:54.242Z,62
2023-12-29T19:45:54.393Z,73
2023-12-29T19:47:54.469Z,63
2023-12-29T19:49:54.518Z,56
2023-12-29T19:51:54.661Z,54
2023-12-29T19:53:54.679Z,52
2023-12-29T19:55:54.760Z,51
2023-12-29T19:57:54.863Z,59
2023-12-29T19:59:54.916Z,50
2023-12-29T20:01:55.069Z,50
2023-12-29T20:03:55.153Z,52
2023-12-29T20:05:55.372Z,54
2023-12-29T20:09:55.509Z,50
2023-12-29T20:11:55.476Z,48
2023-12-29T20:13:55.540Z,47
2023-12-29T20:15:55.681Z,55
2023-12-29T20:17:55.830Z,64
2023-12-29T20:19:55.827Z,40
2023-12-29T20:21:55.916Z,36
2023-12-29T20:23:56.044Z,37
2023-12-29T20:25:56.077Z,37
2023-12-29T20:27:56.206Z,35
2023-12-29T20:29:56.320Z,39
2023-12-29T20:31:56.394Z,37
2023-12-29T20:33:56.579Z,39
2023-12-29T20:35:56.542Z,37
2023-12-29T20:37:56.635Z,41
2023-12-29T20:41:56.803Z,42
2023-12-29T20:43:56.884Z,46
2023-12-29T20:48:27.238Z,39
2023-12-29T20:50:27.263Z,61
2023-12-29T20:52:27.450Z,52
2023-12-29T20:54:27.517Z,47
2023-12-29T20:56:27.603Z,47
2023-12-29T20:58:27.796Z,45
2023-12-29T21:00:27.808Z,46
2023-12-29T21:02:27.941Z,42
2023-12-29T21:04:28.142Z,41
2023-12-29T21:06:28.131Z,36
2023-12-29T21:08:28.265Z,38
2023-12-29T21:10:28.518Z,37
2023-12-29T21:12:28.487Z,43
2023-12-29T21:14:28.623Z,48
2023-12-29T21:16:28.856Z,65
2023-12-29T21:18:28.902Z,60
2023-12-29T21:20:28.970Z,56
2023-12-29T21:22:29.184Z,53
2023-12-29T21:24:29.193Z,51
2023-12-29T21:26:29.281Z,48
2023-12-29T21:28:29.491Z,38
2023-12-29T21:30:29.848Z,35
2023-12-29T21:32:29.724Z,36
2023-12-29T21:34:29.926Z,37
2023-12-29T21:36:29.919Z,35
2023-12-29T21:38:29.977Z,36
2023-12-29T21:40:30.148Z,32
2023-12-29T21:42:30.235Z,30
2023-12-29T21:44:30.324Z,41
2023-12-29T21:46:30.514Z,38
2023-12-29T21:48:30.694Z,36
2023-12-29T21:50:30.693Z,34
2023-12-29T21:52:30.875Z,39
2023-12-29T21:54:30.907Z,47
2023-12-29T21:56:31.012Z,51
2023-12-29T21:58:31.183Z,47
2023-12-29T22:00:31.268Z,45
2023-12-29T22:02:31.354Z,43
2023-12-29T22:04:31.502Z,44
2023-12-29T22:06:31.587Z,41
2023-12-29T22:08:31.716Z,38
2023-12-29T22:10:31.825Z,50
2023-12-29T22:12:31.930Z,40
2023-12-29T22:14:32.014Z,39
2023-12-29T22:16:32.170Z,38
2023-12-29T22:18:32.362Z,42
2023-12-29T22:20:32.353Z,48
2023-12-29T22:22:32.644Z,52
2023-12-29T22:24:32.574Z,41
2023-12-29T22:28:32.803Z,40
2023-12-29T22:30:32.954Z,41
2023-12-29T22:32:33.117Z,42
2023-12-29T22:34:33.290Z,49
2023-12-29T22:36:33.277Z,58
2023-12-29T22:38:33.429Z,73
2023-12-29T22:40:33.538Z,92
2023-12-29T22:42:33.597Z,110
2023-12-29T22:44:33.720Z,103
2023-12-29T22:46:34.049Z,114
2023-12-29T22:48:34.062Z,106
2023-12-29T22:50:34.068Z,101
2023-12-29T22:52:34.284Z,102
2023-12-29T22:54:34.321Z,97
2023-12-29T22:56:34.414Z,91
2023-12-29T22:58:34.534Z,94
2023-12-29T23:00:34.691Z,88
2023-12-29T23:02:34.876Z,86
2023-12-29T23:04:34.886Z,83
2023-12-29T23:06:35.000Z,90
2023-12-29T23:08:35.094Z,86
2023-12-29T23:10:35.236Z,92
2023-12-29T23:12:35.378Z,101
2023-12-29T23:14:35.536Z,106
2023-12-29T23:16:35.641Z,107
2023-12-29T23:18:35.721Z,102
2023-12-29T23:20:35.782Z,105
2023-12-29T23:22:35.899Z,106
2023-12-29T23:24:36.092Z,110
2023-12-29T23:26:36.131Z,95
2023-12-29T23:28:36.299Z,66
2023-12-29T23:30:36.392Z,65
2023-12-29T23:32:36.472Z,64
2023-12-29T23:34:36.737Z,64
2023-12-29T23:36:36.789Z,57
2023-12-29T23:38:36.816Z,49
2023-12-29T23:40:36.942Z,45
2023-12-29T23:42:36.997Z,44
2023-12-29T23:44:37.114Z,43
2023-12-29T23:46:37.292Z,43
2023-12-29T23:48:37.472Z,44
2023-12-29T23:50:37.504Z,45
2023-12-29T23:54:37.688Z,44
2023-12-29T23:56:37.868Z,45
2023-12-29T23:58:37.931Z,44
